Terminal Aerodrome Forecast
Issued by NWS Cleveland, OH

Home | Current Version | Previous Version | Text Only | Print | Product List | Glossary On
Versions: 1 2 3 4 5 6 7 8 9 10 11 12 13 14 15 16 17 18 19 20 21 22
000
FTUS41 KCLE 010500
TAFERI
TAF
KERI 010530Z 0106/0206 20008KT P6SM OVC035
     FM011030 20006KT 4SM -SN SCT008 OVC025
     FM011200 12004KT 1 1/2SM -SN OVC008
     FM011600 05012KT 3/4SM -SN OVC006
     FM012300 06012G22KT 1/2SM SN BLSN OVC004=

USA.gov is the U.S. government's official web portal to all federal, state and local government web resources and services.